sensor_id;sensor_type;location;lat;lon;timestamp;pressure;altitude;pressure_sealevel;temperature;humidity
7180;BME280;3631;42.152;24.756;2022-08-01T00:02:07;99037.91;;;24.78;67.47
7180;BME280;3631;42.152;24.756;2022-08-01T00:04:34;99033.19;;;24.72;67.52
7180;BME280;3631;42.152;24.756;2022-08-01T00:07:02;99044.34;;;24.75;67.85
7180;BME280;3631;42.152;24.756;2022-08-01T00:09:30;99030.66;;;24.80;67.18
7180;BME280;3631;42.152;24.756;2022-08-01T00:11:57;99029.81;;;24.79;67.18
7180;BME280;3631;42.152;24.756;2022-08-01T00:14:24;99031.06;;;24.75;67.04
7180;BME280;3631;42.152;24.756;2022-08-01T00:16:51;99031.34;;;24.72;66.98
7180;BME280;3631;42.152;24.756;2022-08-01T00:19:18;99022.28;;;24.75;66.84
7180;BME280;3631;42.152;24.756;2022-08-01T00:21:45;99019.19;;;24.79;66.28
7180;BME280;3631;42.152;24.756;2022-08-01T00:24:13;99027.56;;;24.75;66.23
7180;BME280;3631;42.152;24.756;2022-08-01T00:26:40;99018.34;;;24.79;66.02
7180;BME280;3631;42.152;24.756;2022-08-01T00:29:07;99021.69;;;24.81;65.71
7180;BME280;3631;42.152;24.756;2022-08-01T00:31:34;99020.56;;;24.83;65.01
7180;BME280;3631;42.152;24.756;2022-08-01T00:34:01;99018.34;;;24.79;65.17
7180;BME280;3631;42.152;24.756;2022-08-01T00:36:28;99009.41;;;24.80;64.60
7180;BME280;3631;42.152;24.756;2022-08-01T00:38:55;99029.75;;;24.89;64.11
7180;BME280;3631;42.152;24.756;2022-08-01T00:41:23;99029.53;;;24.82;64.61
7180;BME280;3631;42.152;24.756;2022-08-01T00:43:50;99027.16;;;24.79;64.67
7180;BME280;3631;42.152;24.756;2022-08-01T00:46:17;99042.25;;;24.79;64.37
7180;BME280;3631;42.152;24.756;2022-08-01T00:48:44;99036.25;;;24.77;64.48
7180;BME280;3631;42.152;24.756;2022-08-01T00:51:11;99037.66;;;24.71;64.42
7180;BME280;3631;42.152;24.756;2022-08-01T00:53:39;99038.09;;;24.67;64.47
7180;BME280;3631;42.152;24.756;2022-08-01T00:56:07;99039.22;;;24.64;64.58
7180;BME280;3631;42.152;24.756;2022-08-01T00:58:35;99031.28;;;24.54;64.62
7180;BME280;3631;42.152;24.756;2022-08-01T01:01:03;99034.22;;;24.51;65.15
7180;BME280;3631;42.152;24.756;2022-08-01T01:03:30;99035.19;;;24.50;65.08
7180;BME280;3631;42.152;24.756;2022-08-01T01:06:08;99033.56;;;24.40;65.14
7180;BME280;3631;42.152;24.756;2022-08-01T01:08:42;99030.75;;;24.41;65.07
7180;BME280;3631;42.152;24.756;2022-08-01T01:11:15;99029.66;;;24.34;65.18
7180;BME280;3631;42.152;24.756;2022-08-01T01:13:50;99043.34;;;24.30;65.23
7180;BME280;3631;42.152;24.756;2022-08-01T01:16:20;99041.13;;;24.25;65.39
7180;BME280;3631;42.152;24.756;2022-08-01T01:18:51;99052.97;;;24.21;65.83
7180;BME280;3631;42.152;24.756;2022-08-01T01:21:50;99023.28;;;23.98;66.10
7180;BME280;3631;42.152;24.756;2022-08-01T01:24:28;99041.41;;;24.03;66.33
7180;BME280;3631;42.152;24.756;2022-08-01T01:27:06;99046.16;;;23.99;66.56
7180;BME280;3631;42.152;24.756;2022-08-01T01:29:41;99040.16;;;23.97;66.35
7180;BME280;3631;42.152;24.756;2022-08-01T01:32:14;99031.63;;;23.94;66.28
7180;BME280;3631;42.152;24.756;2022-08-01T01:34:45;99041.13;;;23.86;66.94
7180;BME280;3631;42.152;24.756;2022-08-01T01:37:17;99043.78;;;23.86;67.30
7180;BME280;3631;42.152;24.756;2022-08-01T01:39:46;99041.69;;;23.80;67.05
7180;BME280;3631;42.152;24.756;2022-08-01T01:42:15;99046.16;;;23.80;67.02
7180;BME280;3631;42.152;24.756;2022-08-01T01:44:44;99043.66;;;23.78;66.94
7180;BME280;3631;42.152;24.756;2022-08-01T01:47:13;99038.63;;;23.75;67.41
7180;BME280;3631;42.152;24.756;2022-08-01T01:49:41;99036.09;;;23.74;67.17
7180;BME280;3631;42.152;24.756;2022-08-01T01:52:12;99039.19;;;23.69;67.38
7180;BME280;3631;42.152;24.756;2022-08-01T01:54:44;99035.53;;;23.70;67.31
7180;BME280;3631;42.152;24.756;2022-08-01T01:57:12;99027.88;;;23.67;67.50
7180;BME280;3631;42.152;24.756;2022-08-01T01:59:41;99027.31;;;23.64;67.67
7180;BME280;3631;42.152;24.756;2022-08-01T02:02:11;99034.41;;;23.53;68.29
7180;BME280;3631;42.152;24.756;2022-08-01T02:04:42;99034.78;;;23.49;68.11
7180;BME280;3631;42.152;24.756;2022-08-01T02:07:11;99033.94;;;23.48;68.46
7180;BME280;3631;42.152;24.756;2022-08-01T02:09:40;99041.06;;;23.48;68.56
7180;BME280;3631;42.152;24.756;2022-08-01T02:12:10;99033.28;;;23.46;68.46
7180;BME280;3631;42.152;24.756;2022-08-01T02:14:38;99033.28;;;23.46;68.70
7180;BME280;3631;42.152;24.756;2022-08-01T02:17:06;99035.53;;;23.51;67.58
7180;BME280;3631;42.152;24.756;2022-08-01T02:19:37;99010.66;;;23.33;68.04
7180;BME280;3631;42.152;24.756;2022-08-01T02:22:08;99039.59;;;23.55;68.17
7180;BME280;3631;42.152;24.756;2022-08-01T02:24:39;99040.28;;;23.57;67.66
7180;BME280;3631;42.152;24.756;2022-08-01T02:27:10;99039.31;;;23.58;67.45
7180;BME280;3631;42.152;24.756;2022-08-01T02:29:41;99037.44;;;23.49;67.75
7180;BME280;3631;42.152;24.756;2022-08-01T02:32:12;99036.59;;;23.48;68.06
7180;BME280;3631;42.152;24.756;2022-08-01T02:34:46;99041.06;;;23.48;67.79
7180;BME280;3631;42.152;24.756;2022-08-01T02:37:14;99044.84;;;23.45;67.84
7180;BME280;3631;42.152;24.756;2022-08-01T02:39:42;99045.94;;;23.43;67.67
7180;BME280;3631;42.152;24.756;2022-08-01T02:42:13;99036.06;;;23.45;67.63
7180;BME280;3631;42.152;24.756;2022-08-01T02:44:42;99034.78;;;23.39;67.43
7180;BME280;3631;42.152;24.756;2022-08-01T02:47:10;99033.53;;;23.34;67.80
7180;BME280;3631;42.152;24.756;2022-08-01T02:49:44;99021.38;;;23.22;67.96
7180;BME280;3631;42.152;24.756;2022-08-01T02:52:14;99035.72;;;23.29;67.50
7180;BME280;3631;42.152;24.756;2022-08-01T02:54:44;99009.09;;;23.21;67.16
7180;BME280;3631;42.152;24.756;2022-08-01T02:57:13;99027.38;;;23.24;67.18
7180;BME280;3631;42.152;24.756;2022-08-01T02:59:42;99032.81;;;23.22;67.13
7180;BME280;3631;42.152;24.756;2022-08-01T03:02:10;99021.25;;;23.23;67.21
7180;BME280;3631;42.152;24.756;2022-08-01T03:04:39;99022.09;;;23.24;66.95
7180;BME280;3631;42.152;24.756;2022-08-01T03:07:09;99030.16;;;23.22;66.96
7180;BME280;3631;42.152;24.756;2022-08-01T03:09:40;99029.59;;;23.18;67.14
7180;BME280;3631;42.152;24.756;2022-08-01T03:12:16;99027.91;;;23.17;67.18
7180;BME280;3631;42.152;24.756;2022-08-01T03:14:44;99023.44;;;23.08;67.12
7180;BME280;3631;42.152;24.756;2022-08-01T03:17:15;99020.22;;;23.14;66.73
7180;BME280;3631;42.152;24.756;2022-08-01T03:19:43;99005.59;;;23.10;66.20
7180;BME280;3631;42.152;24.756;2022-08-01T03:22:13;99004.75;;;23.10;66.73
7180;BME280;3631;42.152;24.756;2022-08-01T03:24:43;99013.44;;;23.22;65.59
7180;BME280;3631;42.152;24.756;2022-08-01T03:27:11;99023.44;;;23.18;65.58
7180;BME280;3631;42.152;24.756;2022-08-01T03:29:39;99021.38;;;23.22;65.13
7180;BME280;3631;42.152;24.756;2022-08-01T03:32:09;99017.47;;;23.26;64.57
7180;BME280;3631;42.152;24.756;2022-08-01T03:34:37;99021.66;;;23.28;64.64
7180;BME280;3631;42.152;24.756;2022-08-01T03:37:08;99020.81;;;23.37;63.87
7180;BME280;3631;42.152;24.756;2022-08-01T03:39:44;99015.25;;;23.40;63.42
7180;BME280;3631;42.152;24.756;2022-08-01T03:42:17;98992.25;;;23.31;62.97
7180;BME280;3631;42.152;24.756;2022-08-01T03:44:52;99018.78;;;23.50;62.47
7180;BME280;3631;42.152;24.756;2022-08-01T03:47:22;99026.34;;;23.55;62.91
7180;BME280;3631;42.152;24.756;2022-08-01T03:49:52;99015.88;;;23.73;62.32
7180;BME280;3631;42.152;24.756;2022-08-01T03:52:20;99020.78;;;23.77;61.80
7180;BME280;3631;42.152;24.756;2022-08-01T03:54:52;99024.94;;;23.89;61.12
7180;BME280;3631;42.152;24.756;2022-08-01T03:57:21;99024.53;;;24.04;60.37
7180;BME280;3631;42.152;24.756;2022-08-01T03:59:49;99035.91;;;24.89;57.99
7180;BME280;3631;42.152;24.756;2022-08-01T04:02:16;99029.78;;;26.32;52.75
7180;BME280;3631;42.152;24.756;2022-08-01T04:04:44;99033.53;;;27.66;49.13
7180;BME280;3631;42.152;24.756;2022-08-01T04:07:21;99043.91;;;29.13;44.55
7180;BME280;3631;42.152;24.756;2022-08-01T04:09:50;99044.81;;;30.51;41.20
7180;BME280;3631;42.152;24.756;2022-08-01T04:12:17;99055.75;;;31.95;38.07
7180;BME280;3631;42.152;24.756;2022-08-01T04:14:44;99051.59;;;33.25;35.54
7180;BME280;3631;42.152;24.756;2022-08-01T04:17:11;99054.72;;;34.36;33.42
7180;BME280;3631;42.152;24.756;2022-08-01T04:19:38;99060.44;;;35.05;31.93
7180;BME280;3631;42.152;24.756;2022-08-01T04:22:05;99061.34;;;35.88;30.46
7180;BME280;3631;42.152;24.756;2022-08-01T04:24:34;99068.56;;;36.76;29.51
7180;BME280;3631;42.152;24.756;2022-08-01T04:27:08;99070.50;;;37.90;27.89
7180;BME280;3631;42.152;24.756;2022-08-01T04:29:37;99068.84;;;38.89;26.27
7180;BME280;3631;42.152;24.756;2022-08-01T04:32:06;99063.03;;;39.20;25.32
7180;BME280;3631;42.152;24.756;2022-08-01T04:34:38;99071.59;;;39.40;24.99
7180;BME280;3631;42.152;24.756;2022-08-01T04:37:07;99069.44;;;39.14;25.35
7180;BME280;3631;42.152;24.756;2022-08-01T04:39:36;99078.91;;;39.51;25.09
7180;BME280;3631;42.152;24.756;2022-08-01T04:42:05;99074.94;;;39.71;24.41
7180;BME280;3631;42.152;24.756;2022-08-01T04:44:33;99080.91;;;39.04;25.03
7180;BME280;3631;42.152;24.756;2022-08-01T04:47:01;99071.03;;;39.67;24.12
7180;BME280;3631;42.152;24.756;2022-08-01T04:49:30;99054.44;;;39.80;24.27
7180;BME280;3631;42.152;24.756;2022-08-01T04:51:57;99077.59;;;40.61;23.36
7180;BME280;3631;42.152;24.756;2022-08-01T04:54:25;99058.00;;;41.41;22.96
7180;BME280;3631;42.152;24.756;2022-08-01T04:56:53;99074.28;;;41.36;22.67
7180;BME280;3631;42.152;24.756;2022-08-01T04:59:22;99081.41;;;40.98;22.65
7180;BME280;3631;42.152;24.756;2022-08-01T05:02:06;99079.59;;;41.26;22.33
7180;BME280;3631;42.152;24.756;2022-08-01T05:04:33;99065.84;;;40.94;22.93
7180;BME280;3631;42.152;24.756;2022-08-01T05:07:00;99075.09;;;40.09;23.42
7180;BME280;3631;42.152;24.756;2022-08-01T05:09:27;99078.72;;;40.82;23.05
7180;BME280;3631;42.152;24.756;2022-08-01T05:11:54;99077.16;;;40.69;23.04
7180;BME280;3631;42.152;24.756;2022-08-01T05:14:25;99082.47;;;40.59;23.45
7180;BME280;3631;42.152;24.756;2022-08-01T05:16:52;99077.09;;;40.14;23.75
7180;BME280;3631;42.152;24.756;2022-08-01T05:19:19;99083.63;;;41.02;23.04
7180;BME280;3631;42.152;24.756;2022-08-01T05:21:46;99065.66;;;41.44;22.51
7180;BME280;3631;42.152;24.756;2022-08-01T05:24:13;99076.06;;;41.96;22.43
7180;BME280;3631;42.152;24.756;2022-08-01T05:26:40;99073.28;;;42.23;21.58
7180;BME280;3631;42.152;24.756;2022-08-01T05:29:07;99070.59;;;41.47;21.70
7180;BME280;3631;42.152;24.756;2022-08-01T05:31:36;99077.09;;;41.19;21.85
7180;BME280;3631;42.152;24.756;2022-08-01T05:34:03;99070.94;;;40.35;22.20
7180;BME280;3631;42.152;24.756;2022-08-01T05:36:30;99073.09;;;39.88;22.67
7180;BME280;3631;42.152;24.756;2022-08-01T05:38:56;99026.16;;;40.09;22.21
7180;BME280;3631;42.152;24.756;2022-08-01T05:41:23;99069.34;;;40.06;22.22
7180;BME280;3631;42.152;24.756;2022-08-01T05:43:50;99073.97;;;39.37;22.45
7180;BME280;3631;42.152;24.756;2022-08-01T05:46:17;99042.38;;;39.59;22.00
7180;BME280;3631;42.152;24.756;2022-08-01T05:48:45;99071.91;;;40.46;21.04
7180;BME280;3631;42.152;24.756;2022-08-01T05:51:12;99082.44;;;40.76;20.85
7180;BME280;3631;42.152;24.756;2022-08-01T05:53:39;99078.28;;;40.90;20.74
7180;BME280;3631;42.152;24.756;2022-08-01T05:56:06;99084.94;;;40.99;20.72
7180;BME280;3631;42.152;24.756;2022-08-01T05:58:33;99059.56;;;40.93;20.12
7180;BME280;3631;42.152;24.756;2022-08-01T06:01:00;99073.50;;;40.97;20.25
7180;BME280;3631;42.152;24.756;2022-08-01T06:03:27;99073.97;;;41.32;20.02
7180;BME280;3631;42.152;24.756;2022-08-01T06:05:58;99074.53;;;41.13;20.26
7180;BME280;3631;42.152;24.756;2022-08-01T06:08:25;99070.81;;;40.63;20.01
7180;BME280;3631;42.152;24.756;2022-08-01T06:10:52;99072.31;;;40.54;20.36
7180;BME280;3631;42.152;24.756;2022-08-01T06:13:19;99073.81;;;40.62;20.43
7180;BME280;3631;42.152;24.756;2022-08-01T06:15:46;99063.19;;;39.82;20.61
7180;BME280;3631;42.152;24.756;2022-08-01T06:18:13;99059.00;;;39.63;20.96
7180;BME280;3631;42.152;24.756;2022-08-01T06:20:40;99064.59;;;39.56;20.66
7180;BME280;3631;42.152;24.756;2022-08-01T06:23:09;99057.25;;;39.85;20.53
7180;BME280;3631;42.152;24.756;2022-08-01T06:25:36;99054.09;;;40.21;20.17
7180;BME280;3631;42.152;24.756;2022-08-01T06:28:03;99056.22;;;40.53;19.82
7180;BME280;3631;42.152;24.756;2022-08-01T06:30:30;99056.22;;;40.53;19.72
7180;BME280;3631;42.152;24.756;2022-08-01T06:32:57;99057.16;;;40.42;20.00
7180;BME280;3631;42.152;24.756;2022-08-01T06:35:26;99055.34;;;40.14;20.23
7180;BME280;3631;42.152;24.756;2022-08-01T06:37:53;99051.25;;;40.28;20.11
7180;BME280;3631;42.152;24.756;2022-08-01T06:40:22;99051.44;;;39.93;20.35
7180;BME280;3631;42.152;24.756;2022-08-01T06:42:49;99049.91;;;39.69;20.42
7180;BME280;3631;42.152;24.756;2022-08-01T06:45:17;99054.44;;;39.51;20.66
7180;BME280;3631;42.152;24.756;2022-08-01T06:47:44;99047.34;;;39.22;21.33
7180;BME280;3631;42.152;24.756;2022-08-01T06:50:11;99037.59;;;38.74;21.37
7180;BME280;3631;42.152;24.756;2022-08-01T06:52:39;99053.34;;;38.07;22.47
7180;BME280;3631;42.152;24.756;2022-08-01T06:55:07;99015.75;;;37.99;22.34
7180;BME280;3631;42.152;24.756;2022-08-01T06:57:36;99034.69;;;38.64;22.27
7180;BME280;3631;42.152;24.756;2022-08-01T07:00:06;99036.19;;;38.72;21.88
7180;BME280;3631;42.152;24.756;2022-08-01T07:02:35;98999.16;;;38.42;21.72
7180;BME280;3631;42.152;24.756;2022-08-01T07:05:03;99029.47;;;38.74;21.30
7180;BME280;3631;42.152;24.756;2022-08-01T07:07:30;99032.16;;;38.98;20.63
7180;BME280;3631;42.152;24.756;2022-08-01T07:09:57;99021.00;;;38.36;21.24
7180;BME280;3631;42.152;24.756;2022-08-01T07:12:24;99024.53;;;38.36;22.08
7180;BME280;3631;42.152;24.756;2022-08-01T07:14:52;99033.00;;;38.28;22.36
7180;BME280;3631;42.152;24.756;2022-08-01T07:17:19;99030.78;;;37.84;22.34
7180;BME280;3631;42.152;24.756;2022-08-01T07:19:46;99027.91;;;37.67;22.68
7180;BME280;3631;42.152;24.756;2022-08-01T07:22:13;99033.19;;;37.62;22.18
7180;BME280;3631;42.152;24.756;2022-08-01T07:24:41;99016.53;;;37.47;22.51
7180;BME280;3631;42.152;24.756;2022-08-01T07:27:08;99019.44;;;37.45;22.73
7180;BME280;3631;42.152;24.756;2022-08-01T07:29:35;99024.16;;;37.50;22.49
7180;BME280;3631;42.152;24.756;2022-08-01T07:32:05;99015.03;;;37.32;22.79
7180;BME280;3631;42.152;24.756;2022-08-01T07:34:32;99019.44;;;37.45;22.77
7180;BME280;3631;42.152;24.756;2022-08-01T07:36:59;99006.31;;;37.90;22.55
7180;BME280;3631;42.152;24.756;2022-08-01T07:39:25;99006.59;;;38.24;21.74
7180;BME280;3631;42.152;24.756;2022-08-01T07:41:52;99014.47;;;38.72;21.91
7180;BME280;3631;42.152;24.756;2022-08-01T07:44:19;99009.75;;;39.31;21.07
7180;BME280;3631;42.152;24.756;2022-08-01T07:46:46;99000.22;;;39.73;21.03
7180;BME280;3631;42.152;24.756;2022-08-01T07:49:15;99002.25;;;40.11;20.39
7180;BME280;3631;42.152;24.756;2022-08-01T07:51:41;99003.34;;;40.10;20.06
7180;BME280;3631;42.152;24.756;2022-08-01T07:54:08;98995.50;;;40.47;19.75
7180;BME280;3631;42.152;24.756;2022-08-01T07:56:35;99004.09;;;40.99;19.29
7180;BME280;3631;42.152;24.756;2022-08-01T07:59:02;99008.97;;;41.41;19.42
7180;BME280;3631;42.152;24.756;2022-08-01T08:01:29;99006.78;;;40.73;19.74
7180;BME280;3631;42.152;24.756;2022-08-01T08:03:56;99003.22;;;40.72;19.55
7180;BME280;3631;42.152;24.756;2022-08-01T08:06:24;98995.44;;;40.64;19.54
7180;BME280;3631;42.152;24.756;2022-08-01T08:08:51;98996.72;;;40.56;19.39
7180;BME280;3631;42.152;24.756;2022-08-01T08:11:19;98975.44;;;40.70;19.33
7180;BME280;3631;42.152;24.756;2022-08-01T08:13:46;98974.81;;;40.46;19.25
7180;BME280;3631;42.152;24.756;2022-08-01T08:16:12;98974.81;;;39.96;19.62
7180;BME280;3631;42.152;24.756;2022-08-01T08:18:40;98971.44;;;40.22;19.64
7180;BME280;3631;42.152;24.756;2022-08-01T08:21:07;98978.28;;;40.63;19.00
7180;BME280;3631;42.152;24.756;2022-08-01T08:23:35;98965.88;;;40.29;19.44
7180;BME280;3631;42.152;24.756;2022-08-01T08:26:20;98962.13;;;40.18;19.50
7180;BME280;3631;42.152;24.756;2022-08-01T08:28:48;98980.53;;;39.95;19.72
7180;BME280;3631;42.152;24.756;2022-08-01T08:31:15;98973.81;;;39.40;20.66
7180;BME280;3631;42.152;24.756;2022-08-01T08:33:42;98977.97;;;39.43;20.59
7180;BME280;3631;42.152;24.756;2022-08-01T08:36:09;98971.41;;;38.99;20.45
7180;BME280;3631;42.152;24.756;2022-08-01T08:38:38;98974.94;;;38.88;21.10
7180;BME280;3631;42.152;24.756;2022-08-01T08:41:05;98965.59;;;38.55;21.35
7180;BME280;3631;42.152;24.756;2022-08-01T08:43:33;98973.06;;;38.06;21.67
7180;BME280;3631;42.152;24.756;2022-08-01T08:46:01;98972.47;;;37.93;22.06
7180;BME280;3631;42.152;24.756;2022-08-01T08:48:29;98967.41;;;37.96;22.11
7180;BME280;3631;42.152;24.756;2022-08-01T08:50:57;98955.41;;;37.51;21.93
7180;BME280;3631;42.152;24.756;2022-08-01T08:53:24;98958.19;;;37.32;23.01
7180;BME280;3631;42.152;24.756;2022-08-01T08:55:54;98953.16;;;37.48;22.74
7180;BME280;3631;42.152;24.756;2022-08-01T08:58:25;98954.44;;;37.33;22.20
7180;BME280;3631;42.152;24.756;2022-08-01T09:00:53;98957.00;;;37.10;22.66
7180;BME280;3631;42.152;24.756;2022-08-01T09:03:20;98942.00;;;36.96;23.32
7180;BME280;3631;42.152;24.756;2022-08-01T09:05:47;98959.00;;;36.66;23.01
7180;BME280;3631;42.152;24.756;2022-08-01T09:08:14;98946.03;;;36.68;23.35
7180;BME280;3631;42.152;24.756;2022-08-01T09:10:41;98953.59;;;36.85;22.95
7180;BME280;3631;42.152;24.756;2022-08-01T09:13:11;98930.59;;;36.57;23.55
7180;BME280;3631;42.152;24.756;2022-08-01T09:15:43;98949.59;;;36.69;23.87
7180;BME280;3631;42.152;24.756;2022-08-01T09:18:31;98949.16;;;36.72;23.81
7180;BME280;3631;42.152;24.756;2022-08-01T09:21:13;98957.09;;;37.03;23.72
7180;BME280;3631;42.152;24.756;2022-08-01T09:23:43;98948.50;;;36.77;23.46
7180;BME280;3631;42.152;24.756;2022-08-01T09:26:11;98947.56;;;36.83;23.86
7180;BME280;3631;42.152;24.756;2022-08-01T09:28:41;98931.50;;;36.69;23.65
7180;BME280;3631;42.152;24.756;2022-08-01T09:31:11;98920.69;;;36.51;23.88
7180;BME280;3631;42.152;24.756;2022-08-01T09:33:49;98928.88;;;36.45;24.50
7180;BME280;3631;42.152;24.756;2022-08-01T09:36:16;98929.25;;;36.66;24.64
7180;BME280;3631;42.152;24.756;2022-08-01T09:38:44;98935.88;;;36.70;24.12
7180;BME280;3631;42.152;24.756;2022-08-01T09:41:11;98931.78;;;36.61;24.08
7180;BME280;3631;42.152;24.756;2022-08-01T09:43:38;98910.69;;;36.52;24.10
7180;BME280;3631;42.152;24.756;2022-08-01T09:46:09;98916.41;;;36.44;24.09
7180;BME280;3631;42.152;24.756;2022-08-01T09:48:38;98898.09;;;36.46;24.45
7180;BME280;3631;42.152;24.756;2022-08-01T09:51:06;98901.97;;;36.50;24.31
7180;BME280;3631;42.152;24.756;2022-08-01T09:53:44;98918.19;;;36.50;24.76
7180;BME280;3631;42.152;24.756;2022-08-01T09:56:12;98920.25;;;36.54;24.26
7180;BME280;3631;42.152;24.756;2022-08-01T09:58:53;98914.00;;;36.35;24.46
7180;BME280;3631;42.152;24.756;2022-08-01T10:01:22;98921.28;;;36.53;24.61
7180;BME280;3631;42.152;24.756;2022-08-01T10:04:04;98914.88;;;36.48;24.25
7180;BME280;3631;42.152;24.756;2022-08-01T10:06:32;98909.41;;;36.36;24.98
7180;BME280;3631;42.152;24.756;2022-08-01T10:08:58;98905.97;;;36.29;24.90
7180;BME280;3631;42.152;24.756;2022-08-01T10:11:26;98894.63;;;35.95;25.41
7180;BME280;3631;42.152;24.756;2022-08-01T10:13:54;98901.38;;;35.86;25.69
7180;BME280;3631;42.152;24.756;2022-08-01T10:16:24;98891.09;;;35.77;25.26
7180;BME280;3631;42.152;24.756;2022-08-01T10:18:54;98896.16;;;35.60;25.45
7180;BME280;3631;42.152;24.756;2022-08-01T10:21:23;98901.59;;;35.28;25.96
7180;BME280;3631;42.152;24.756;2022-08-01T10:23:53;98902.41;;;34.91;26.12
7180;BME280;3631;42.152;24.756;2022-08-01T10:26:21;98905.53;;;34.88;26.35
7180;BME280;3631;42.152;24.756;2022-08-01T10:28:48;98874.59;;;34.90;26.53
7180;BME280;3631;42.152;24.756;2022-08-01T10:31:17;98901.19;;;34.87;26.60
7180;BME280;3631;42.152;24.756;2022-08-01T10:33:46;98899.47;;;34.41;26.97
7180;BME280;3631;42.152;24.756;2022-08-01T10:36:13;98891.44;;;34.02;27.23
7180;BME280;3631;42.152;24.756;2022-08-01T10:38:40;98895.38;;;34.26;27.72
7180;BME280;3631;42.152;24.756;2022-08-01T10:41:08;98892.25;;;34.15;28.06
7180;BME280;3631;42.152;24.756;2022-08-01T10:43:35;98899.53;;;33.88;27.89
7180;BME280;3631;42.152;24.756;2022-08-01T10:46:03;98903.47;;;33.46;28.85
7180;BME280;3631;42.152;24.756;2022-08-01T10:48:36;98902.44;;;33.61;28.43
7180;BME280;3631;42.152;24.756;2022-08-01T10:51:07;98892.72;;;33.73;28.84
7180;BME280;3631;42.152;24.756;2022-08-01T10:53:34;98898.13;;;33.86;28.80
7180;BME280;3631;42.152;24.756;2022-08-01T10:56:03;98890.84;;;33.73;28.16
7180;BME280;3631;42.152;24.756;2022-08-01T10:58:34;98884.81;;;33.65;28.30
7180;BME280;3631;42.152;24.756;2022-08-01T11:01:19;98902.22;;;33.36;29.37
7180;BME280;3631;42.152;24.756;2022-08-01T11:04:05;98887.88;;;33.15;29.32
7180;BME280;3631;42.152;24.756;2022-08-01T11:07:03;98889.09;;;33.06;29.36
7180;BME280;3631;42.152;24.756;2022-08-01T11:09:38;98887.69;;;33.17;29.67
7180;BME280;3631;42.152;24.756;2022-08-01T11:12:08;98871.78;;;33.29;29.86
7180;BME280;3631;42.152;24.756;2022-08-01T11:17:37;98865.72;;;33.13;29.42
7180;BME280;3631;42.152;24.756;2022-08-01T11:20:06;98872.00;;;33.40;29.62
7180;BME280;3631;42.152;24.756;2022-08-01T11:29:11;98870.97;;;33.48;29.04
7180;BME280;3631;42.152;24.756;2022-08-01T11:31:38;98864.75;;;33.54;29.10
7180;BME280;3631;42.152;24.756;2022-08-01T11:34:05;98868.47;;;33.33;28.76
7180;BME280;3631;42.152;24.756;2022-08-01T11:36:32;98870.13;;;33.34;28.85
7180;BME280;3631;42.152;24.756;2022-08-01T11:39:18;98866.59;;;33.34;29.56
7180;BME280;3631;42.152;24.756;2022-08-01T11:41:47;98858.94;;;33.31;29.50
7180;BME280;3631;42.152;24.756;2022-08-01T11:44:17;98869.09;;;33.48;29.37
7180;BME280;3631;42.152;24.756;2022-08-01T11:46:56;98860.41;;;33.60;29.67
7180;BME280;3631;42.152;24.756;2022-08-01T11:49:46;98864.53;;;33.69;29.48
7180;BME280;3631;42.152;24.756;2022-08-01T11:52:16;98857.50;;;33.87;29.33
7180;BME280;3631;42.152;24.756;2022-08-01T11:54:46;98859.97;;;33.89;28.49
7180;BME280;3631;42.152;24.756;2022-08-01T11:57:17;98865.56;;;33.87;28.42
7180;BME280;3631;42.152;24.756;2022-08-01T11:59:47;98844.69;;;33.83;27.83
7180;BME280;3631;42.152;24.756;2022-08-01T12:02:19;98854.56;;;34.09;28.53
7180;BME280;3631;42.152;24.756;2022-08-01T12:04:57;98853.34;;;33.98;28.41
7180;BME280;3631;42.152;24.756;2022-08-01T12:07:26;98850.44;;;34.06;27.98
7180;BME280;3631;42.152;24.756;2022-08-01T12:09:59;98848.34;;;34.15;28.52
7180;BME280;3631;42.152;24.756;2022-08-01T12:12:27;98832.59;;;34.12;28.46
7180;BME280;3631;42.152;24.756;2022-08-01T12:14:57;98802.84;;;33.74;28.11
7180;BME280;3631;42.152;24.756;2022-08-01T12:17:36;98840.13;;;33.83;28.36
7180;BME280;3631;42.152;24.756;2022-08-01T12:20:05;98846.09;;;33.99;27.98
7180;BME280;3631;42.152;24.756;2022-08-01T12:22:32;98834.72;;;33.90;28.45
7180;BME280;3631;42.152;24.756;2022-08-01T12:25:05;98843.66;;;33.84;27.84
7180;BME280;3631;42.152;24.756;2022-08-01T12:27:32;98840.94;;;33.97;27.75
7180;BME280;3631;42.152;24.756;2022-08-01T12:30:03;98839.06;;;33.91;27.95
7180;BME280;3631;42.152;24.756;2022-08-01T12:32:32;98839.28;;;33.76;28.87
7180;BME280;3631;42.152;24.756;2022-08-01T12:35:02;98841.97;;;33.70;28.47
7180;BME280;3631;42.152;24.756;2022-08-01T12:37:30;98833.91;;;33.70;28.43
7180;BME280;3631;42.152;24.756;2022-08-01T12:39:57;98829.34;;;33.77;28.83
7180;BME280;3631;42.152;24.756;2022-08-01T12:42:24;98834.94;;;33.75;28.75
7180;BME280;3631;42.152;24.756;2022-08-01T12:44:51;98826.88;;;33.56;28.65
7180;BME280;3631;42.152;24.756;2022-08-01T12:47:21;98827.88;;;33.68;28.78
7180;BME280;3631;42.152;24.756;2022-08-01T12:49:50;98819.63;;;33.56;28.87
7180;BME280;3631;42.152;24.756;2022-08-01T12:52:17;98821.91;;;33.59;28.89
7180;BME280;3631;42.152;24.756;2022-08-01T12:55:06;98825.84;;;33.57;28.71
7180;BME280;3631;42.152;24.756;2022-08-01T12:57:36;98819.00;;;33.54;28.96
7180;BME280;3631;42.152;24.756;2022-08-01T13:00:13;98818.81;;;33.62;28.65
7180;BME280;3631;42.152;24.756;2022-08-01T13:02:42;98819.84;;;33.61;28.78
7180;BME280;3631;42.152;24.756;2022-08-01T13:05:10;98810.72;;;33.56;29.03
7180;BME280;3631;42.152;24.756;2022-08-01T13:07:45;98810.28;;;33.65;28.46
7180;BME280;3631;42.152;24.756;2022-08-01T13:10:13;98806.56;;;33.53;28.91
7180;BME280;3631;42.152;24.756;2022-08-01T13:42:41;98797.22;;;32.83;30.17
7180;BME280;3631;42.152;24.756;2022-08-01T13:45:08;98796.63;;;32.94;29.60
7180;BME280;3631;42.152;24.756;2022-08-01T13:47:37;98806.94;;;32.97;29.55
7180;BME280;3631;42.152;24.756;2022-08-01T13:50:04;98798.88;;;32.84;29.54
7180;BME280;3631;42.152;24.756;2022-08-01T13:52:31;98792.44;;;32.85;29.54
7180;BME280;3631;42.152;24.756;2022-08-01T13:54:59;98797.84;;;32.92;30.15
7180;BME280;3631;42.152;24.756;2022-08-01T13:57:26;98786.91;;;32.93;30.06
7180;BME280;3631;42.152;24.756;2022-08-01T13:59:55;98800.97;;;32.95;29.81
7180;BME280;3631;42.152;24.756;2022-08-01T14:02:25;98792.06;;;32.88;29.59